Time;durP1;ratioP1;P1;durP2;ratioP2;P2;SDS_P1;SDS_P2;PMS_P1;PMS_P2;Temp;Humidity;BMP_temperature;BMP_pressure;BME280_temperature;BME280_humidity;BME280_pressure;Samples;Min_cycle;Max_cycle;Signal;HPM_P1;HPM_P2
2023/05/01 00:00:05;;;;;;;12.75;6.25;;;;;;;13.73;55.01;100606.28;5079006;28;20033;-80
2023/05/01 00:02:30;;;;;;;12.20;5.60;;;;;;;13.78;55.00;100622.91;5073148;28;20111;-79
2023/05/01 00:04:56;;;;;;;10.15;6.50;;;;;;;13.73;55.02;100617.91;5076392;28;20115;-80
2023/05/01 00:07:22;;;;;;;19.90;6.57;;;;;;;13.68;54.93;100609.41;5074955;28;20510;-81
2023/05/01 00:09:47;;;;;;;17.58;6.50;;;;;;;13.67;54.93;100618.50;5073656;28;20048;-79
2023/05/01 00:12:13;;;;;;;17.02;6.65;;;;;;;13.72;55.09;100631.59;5070950;28;20039;-80
2023/05/01 00:14:38;;;;;;;12.23;6.15;;;;;;;13.67;55.18;100626.59;5071264;28;20043;-80
2023/05/01 00:17:05;;;;;;;15.82;6.97;;;;;;;13.63;55.28;100622.50;5071024;28;20029;-80
2023/05/01 00:19:31;;;;;;;17.67;8.30;;;;;;;13.64;55.03;100626.91;5071062;28;20487;-81
2023/05/01 00:21:57;;;;;;;22.02;8.88;;;;;;;13.59;55.20;100632.75;5071157;28;20035;-79
2023/05/01 00:24:22;;;;;;;30.33;9.50;;;;;;;13.53;56.04;100640.56;5070925;28;20028;-79
2023/05/01 00:26:48;;;;;;;24.73;10.02;;;;;;;13.52;56.32;100638.84;5070908;28;20028;-80
2023/05/01 00:29:15;;;;;;;26.63;10.27;;;;;;;13.61;56.29;100648.81;5070742;28;20032;-80
2023/05/01 00:31:41;;;;;;;25.77;10.73;;;;;;;13.69;55.92;100640.84;5071045;28;20050;-80
2023/05/01 00:34:07;;;;;;;21.08;10.18;;;;;;;13.76;55.55;100641.97;5070856;28;20154;-80
2023/05/01 00:36:32;;;;;;;29.17;9.38;;;;;;;13.80;55.33;100646.09;5070292;28;20132;-80
2023/05/01 00:38:58;;;;;;;17.98;8.05;;;;;;;13.83;55.23;100643.09;5070489;28;20025;-79
2023/05/01 00:41:23;;;;;;;16.77;8.43;;;;;;;13.81;54.76;100628.03;5069773;28;20079;-79
2023/05/01 00:43:49;;;;;;;15.25;8.68;;;;;;;13.91;54.54;100639.69;5070342;28;20028;-80
2023/05/01 00:46:14;;;;;;;18.85;7.88;;;;;;;13.95;53.85;100630.25;5069259;28;20028;-80
2023/05/01 00:48:40;;;;;;;12.75;7.45;;;;;;;13.98;53.54;100636.22;5070815;28;20032;-80
2023/05/01 00:51:07;;;;;;;18.15;7.68;;;;;;;14.05;53.50;100659.00;5070526;28;20457;-80
2023/05/01 00:53:33;;;;;;;18.63;8.88;;;;;;;14.08;53.74;100657.84;5071381;28;20080;-81
2023/05/01 00:55:59;;;;;;;20.63;7.75;;;;;;;14.08;53.96;100657.84;5073990;28;20435;-79
2023/05/01 00:58:25;;;;;;;17.85;7.95;;;;;;;13.98;53.69;100641.63;5072389;28;20031;-80
2023/05/01 01:00:51;;;;;;;13.88;7.88;;;;;;;14.10;54.08;100656.69;5070227;28;20028;-79
2023/05/01 01:03:17;;;;;;;21.30;7.53;;;;;;;14.12;54.01;100654.72;5070055;28;20024;-80
2023/05/01 01:06:14;;;;;;;20.08;7.00;;;;;;;14.19;53.64;100639.56;5068556;28;20033;-80
2023/05/01 01:08:51;;;;;;;15.45;6.50;;;;;;;14.19;53.50;100642.28;5047569;28;20045;-80
2023/05/01 01:11:41;;;;;;;10.27;5.78;;;;;;;14.31;52.94;100650.22;5047383;28;20116;-80
2023/05/01 01:14:12;;;;;;;10.88;4.95;;;;;;;14.33;53.15;100653.66;5047194;28;20110;-80
2023/05/01 01:16:47;;;;;;;17.77;6.75;;;;;;;14.38;52.95;100648.66;5047326;28;20025;-80
2023/05/01 01:19:30;;;;;;;14.18;6.00;;;;;;;14.47;52.69;100659.44;5047240;28;20071;-82
2023/05/01 01:22:06;;;;;;;13.50;6.35;;;;;;;14.53;52.20;100653.44;5047518;28;20056;-80
2023/05/01 01:24:54;;;;;;;14.88;4.72;;;;;;;14.57;51.74;100651.28;5047324;28;20143;-81
2023/05/01 01:27:19;;;;;;;10.43;4.88;;;;;;;14.67;50.91;100666.50;5047696;28;20099;-81
2023/05/01 01:30:14;;;;;;;10.20;4.85;;;;;;;14.76;50.66;100659.31;5047435;28;20033;-81
2023/05/01 01:33:21;;;;;;;6.03;4.15;;;;;;;14.87;50.53;100669.94;5047107;28;20084;-80
2023/05/01 01:35:53;;;;;;;8.65;5.10;;;;;;;14.89;50.60;100670.63;4968499;28;20054;-81
2023/05/01 01:38:25;;;;;;;13.05;5.22;;;;;;;14.94;50.49;100667.47;4968750;28;20038;-81
2023/05/01 01:40:58;;;;;;;16.70;6.00;;;;;;;14.95;50.87;100672.72;4968762;28;20569;-81
2023/05/01 01:43:26;;;;;;;21.52;5.85;;;;;;;15.00;50.75;100667.72;4969045;28;20039;-82
2023/05/01 01:46:00;;;;;;;18.52;7.65;;;;;;;14.98;51.06;100664.28;4993481;28;20045;-80
2023/05/01 01:48:33;;;;;;;20.52;9.05;;;;;;;14.99;51.49;100666.00;5007693;28;20034;-80
2023/05/01 01:51:03;;;;;;;20.88;8.85;;;;;;;14.94;51.36;100657.50;5009457;28;20034;-80
2023/05/01 01:53:31;;;;;;;17.70;8.15;;;;;;;15.03;51.64;100667.41;5015157;28;20042;-81
2023/05/01 01:55:58;;;;;;;27.25;8.18;;;;;;;15.07;51.41;100676.09;5016843;28;20029;-80
2023/05/01 01:58:26;;;;;;;17.83;9.90;;;;;;;15.06;51.38;100664.41;5012250;28;20036;-79
2023/05/01 02:00:54;;;;;;;40.10;10.57;;;;;;;15.06;51.69;100660.84;5012386;28;20022;-79
2023/05/01 02:03:21;;;;;;;23.05;9.32;;;;;;;15.12;51.40;100671.91;5019369;28;20616;-79
2023/05/01 02:05:50;;;;;;;22.90;11.85;;;;;;;15.05;51.48;100665.38;5014857;28;20405;-79
2023/05/01 02:08:16;;;;;;;28.63;11.85;;;;;;;15.12;50.50;100674.63;5011292;28;20042;-79
2023/05/01 02:10:44;;;;;;;25.95;12.27;;;;;;;15.17;50.70;100666.03;5011566;28;20042;-79
2023/05/01 02:13:11;;;;;;;13.32;4.00;;;;;;;15.23;48.34;100673.53;5063983;28;20071;-79
2023/05/01 02:15:39;;;;;;;10.20;4.68;;;;;;;15.18;47.91;100652.34;5072029;28;20471;-79
2023/05/01 02:18:05;;;;;;;16.90;5.88;;;;;;;15.31;48.72;100683.63;5073824;28;20090;-80
2023/05/01 02:20:32;;;;;;;18.30;5.80;;;;;;;15.24;47.27;100665.25;5071571;28;20072;-79
2023/05/01 02:22:58;;;;;;;15.15;5.68;;;;;;;15.29;47.31;100689.19;5074586;28;20483;-80
2023/05/01 02:25:26;;;;;;;14.75;5.22;;;;;;;15.37;48.00;100691.13;5074004;28;20067;-78
2023/05/01 02:27:59;;;;;;;9.63;4.25;;;;;;;15.44;47.19;100703.06;5075848;28;20033;-80
2023/05/01 02:30:25;;;;;;;20.30;7.85;;;;;;;15.36;47.89;100706.53;5075789;28;20024;-80
2023/05/01 02:32:50;;;;;;;22.40;7.40;;;;;;;15.33;47.87;100703.28;5075654;28;20028;-78
2023/05/01 02:35:16;;;;;;;17.67;7.50;;;;;;;15.33;48.16;100697.84;5075904;28;20741;-80
2023/05/01 02:37:43;;;;;;;23.80;8.43;;;;;;;15.41;48.44;100704.22;5073690;28;20107;-80
2023/05/01 02:40:11;;;;;;;18.52;8.45;;;;;;;15.37;48.16;100702.84;5073473;28;20028;-80
2023/05/01 02:42:37;;;;;;;21.20;7.95;;;;;;;15.31;48.45;100692.59;5073602;28;20020;-80
2023/05/01 02:45:06;;;;;;;15.23;6.93;;;;;;;15.29;48.65;100704.63;5073358;28;20115;-81
2023/05/01 02:47:35;;;;;;;23.25;7.10;;;;;;;15.37;48.46;100713.66;5073308;28;20454;-80
2023/05/01 02:50:02;;;;;;;21.52;6.93;;;;;;;15.45;47.93;100715.59;5076478;28;20098;-80
2023/05/01 02:52:28;;;;;;;15.73;6.07;;;;;;;15.50;47.88;100714.19;5078949;28;20020;-79
2023/05/01 02:54:54;;;;;;;9.43;4.60;;;;;;;15.49;46.45;100722.47;5073329;28;20039;-81
2023/05/01 02:57:20;;;;;;;5.72;3.40;;;;;;;15.57;45.32;100726.09;5072167;28;20025;-81
2023/05/01 02:59:46;;;;;;;8.18;4.05;;;;;;;15.55;45.20;100727.25;5071006;28;20115;-82
2023/05/01 03:02:11;;;;;;;4.70;3.15;;;;;;;15.61;45.12;100726.66;5072269;28;20052;-80
2023/05/01 03:04:37;;;;;;;10.18;3.45;;;;;;;15.52;45.16;100727.56;5071570;28;20029;-81
2023/05/01 03:07:03;;;;;;;20.23;5.10;;;;;;;15.56;44.59;100732.56;5072000;28;20025;-80
2023/05/01 03:09:30;;;;;;;11.85;3.85;;;;;;;15.47;45.02;100713.59;5072645;28;20487;-80
2023/05/01 03:11:56;;;;;;;8.43;3.10;;;;;;;15.39;45.35;100716.22;5072229;28;20021;-81
2023/05/01 03:14:21;;;;;;;14.77;3.25;;;;;;;15.49;45.37;100734.16;5070212;28;20024;-81
2023/05/01 03:16:47;;;;;;;7.57;2.78;;;;;;;15.49;44.99;100719.75;5070784;28;20032;-78
2023/05/01 03:19:12;;;;;;;12.98;3.35;;;;;;;15.55;44.98;100732.69;5071100;28;20089;-77
2023/05/01 03:21:38;;;;;;;8.45;3.80;;;;;;;15.47;45.29;100725.31;5070449;28;20035;-77
2023/05/01 03:24:03;;;;;;;9.38;3.35;;;;;;;15.57;44.70;100744.22;5070754;28;20056;-78
2023/05/01 03:26:29;;;;;;;18.23;3.65;;;;;;;15.53;44.53;100742.84;5070499;28;20031;-79
2023/05/01 03:28:54;;;;;;;9.80;3.75;;;;;;;15.49;44.18;100750.44;5070823;28;20033;-78
2023/05/01 03:31:20;;;;;;;13.68;3.28;;;;;;;15.50;44.64;100752.13;5070545;28;20028;-80
2023/05/01 03:33:46;;;;;;;8.73;4.07;;;;;;;15.55;44.24;100751.66;5070367;28;20025;-79
2023/05/01 03:36:12;;;;;;;14.50;4.50;;;;;;;15.53;44.47;100751.84;5071001;28;20052;-79
2023/05/01 03:38:37;;;;;;;12.18;6.38;;;;;;;15.60;44.20;100762.88;5070938;28;20024;-81
2023/05/01 03:41:04;;;;;;;14.43;5.22;;;;;;;15.57;44.27;100738.78;5070953;28;20028;-79
2023/05/01 03:43:30;;;;;;;20.50;4.68;;;;;;;15.78;44.06;100766.47;5071487;28;20043;-83
2023/05/01 03:45:56;;;;;;;33.78;4.82;;;;;;;15.80;44.15;100767.19;5089544;28;20040;-81
2023/05/01 03:48:22;;;;;;;15.25;3.92;;;;;;;15.83;44.26;100771.44;5079525;28;20029;-81
2023/05/01 03:50:47;;;;;;;13.60;5.00;;;;;;;15.94;44.71;100755.75;5075485;28;20039;-79
2023/05/01 03:53:13;;;;;;;13.60;4.90;;;;;;;16.07;44.63;100767.09;5070759;28;20032;-80
2023/05/01 03:55:39;;;;;;;15.15;5.05;;;;;;;16.18;44.73;100774.97;5070801;28;20028;-79
2023/05/01 03:58:05;;;;;;;13.93;5.80;;;;;;;16.21;44.47;100771.06;5071687;28;20055;-81
2023/05/01 04:00:31;;;;;;;15.40;6.00;;;;;;;16.30;44.31;100779.13;5077594;28;20033;-78
2023/05/01 04:02:56;;;;;;;16.63;6.65;;;;;;;16.32;44.65;100769.00;5072474;28;20031;-80
2023/05/01 04:05:22;;;;;;;19.13;5.93;;;;;;;16.54;44.29;100780.34;5071188;28;20025;-82
2023/05/01 04:07:47;;;;;;;33.10;6.10;;;;;;;16.53;44.68;100762.34;5070414;28;20482;-80
2023/05/01 04:10:13;;;;;;;17.40;5.28;;;;;;;16.58;44.23;100773.59;5070967;28;20115;-81
2023/05/01 04:12:38;;;;;;;14.68;5.38;;;;;;;16.66;43.89;100776.38;5070072;28;20557;-80
2023/05/01 04:15:04;;;;;;;33.80;5.70;;;;;;;16.74;43.36;100784.56;5070726;28;20506;-85
2023/05/01 04:17:30;;;;;;;21.58;5.93;;;;;;;16.84;43.46;100793.47;5073991;28;20410;-87
2023/05/01 04:19:56;;;;;;;22.67;5.30;;;;;;;16.93;43.35;100775.34;5075250;28;20032;-83
2023/05/01 04:22:22;;;;;;;16.40;6.57;;;;;;;17.05;43.44;100784.91;5073119;28;20096;-82
2023/05/01 04:24:48;;;;;;;25.40;10.02;;;;;;;17.05;44.17;100791.19;5073772;28;20477;-82
2023/05/01 04:27:13;;;;;;;27.42;9.65;;;;;;;17.05;44.58;100785.75;5071527;28;20020;-83
2023/05/01 04:29:40;;;;;;;29.52;11.10;;;;;;;17.08;45.58;100790.00;5070218;28;20028;-81
2023/05/01 04:32:06;;;;;;;40.22;14.38;;;;;;;17.08;46.20;100785.44;5069529;28;20491;-79
2023/05/01 04:34:32;;;;;;;48.35;16.50;;;;;;;17.04;46.91;100791.34;5069525;28;20028;-80
2023/05/01 04:36:57;;;;;;;53.75;17.25;;;;;;;17.12;47.28;100802.28;5071847;28;20148;-80
2023/05/01 04:39:23;;;;;;;48.85;18.25;;;;;;;16.99;47.85;100810.88;5069550;28;20047;-78
2023/05/01 04:41:48;;;;;;;51.53;17.15;;;;;;;16.95;48.25;100801.31;5069471;28;20093;-79
2023/05/01 04:44:14;;;;;;;44.53;18.98;;;;;;;16.93;48.80;100806.06;5069727;28;20494;-79
2023/05/01 04:46:40;;;;;;;39.95;18.33;;;;;;;16.91;48.93;100805.38;5069887;28;20036;-78
2023/05/01 04:49:05;;;;;;;38.13;17.50;;;;;;;16.93;48.88;100808.78;5069148;28;20020;-79
2023/05/01 04:51:31;;;;;;;33.58;16.27;;;;;;;16.93;48.47;100819.66;5068858;28;20028;-79
2023/05/01 04:53:56;;;;;;;47.30;18.92;;;;;;;16.95;48.33;100822.22;5068881;28;20447;-79
2023/05/01 04:56:23;;;;;;;36.15;16.90;;;;;;;16.79;49.26;100814.81;5068403;28;20024;-81
2023/05/01 04:58:48;;;;;;;32.30;16.17;;;;;;;16.71;48.79;100815.63;5069213;28;20024;-79
2023/05/01 05:01:14;;;;;;;39.03;16.75;;;;;;;16.76;48.63;100834.13;5069458;28;20032;-80
2023/05/01 05:03:39;;;;;;;31.50;15.95;;;;;;;16.68;49.08;100837.66;5069068;28;20060;-84
2023/05/01 05:06:05;;;;;;;38.65;16.20;;;;;;;16.58;49.63;100830.63;5069285;28;20024;-81
2023/05/01 05:08:30;;;;;;;32.25;16.13;;;;;;;16.48;50.13;100829.84;5069064;28;20568;-79
2023/05/01 05:11:00;;;;;;;37.72;17.35;;;;;;;16.34;50.86;100837.53;5069451;28;20032;-82
2023/05/01 05:13:26;;;;;;;39.83;17.40;;;;;;;16.34;51.25;100837.53;5068904;28;20021;-82
2023/05/01 05:15:52;;;;;;;39.50;18.85;;;;;;;16.29;51.75;100847.16;5068924;28;20077;-80
2023/05/01 05:18:17;;;;;;;37.53;19.58;;;;;;;16.11;52.27;100836.31;5068882;28;20051;-79
2023/05/01 05:20:43;;;;;;;41.10;17.60;;;;;;;16.22;52.64;100848.78;5068877;28;20029;-80
2023/05/01 05:23:09;;;;;;;46.17;18.67;;;;;;;16.39;52.54;100850.63;5069010;28;20028;-81
2023/05/01 05:25:34;;;;;;;41.03;18.10;;;;;;;16.38;52.12;100845.38;5069075;28;20025;-79
2023/05/01 05:28:00;;;;;;;39.53;18.02;;;;;;;16.48;51.77;100846.13;5067954;28;20036;-80
2023/05/01 05:30:26;;;;;;;57.95;20.38;;;;;;;16.63;51.81;100856.31;5068463;28;20044;-79
2023/05/01 05:32:52;;;;;;;44.92;18.42;;;;;;;16.65;51.73;100843.41;5069324;28;20024;-81
2023/05/01 05:35:17;;;;;;;53.90;18.85;;;;;;;16.89;51.36;100864.47;5067553;28;20090;-80
2023/05/01 05:37:44;;;;;;;37.90;18.15;;;;;;;16.97;51.17;100859.06;5068861;28;20059;-80
2023/05/01 05:40:10;;;;;;;41.47;18.83;;;;;;;17.10;51.20;100856.78;5070072;28;20040;-80
2023/05/01 05:42:35;;;;;;;54.42;20.45;;;;;;;17.23;50.89;100848.19;5072187;28;20107;-76
2023/05/01 05:45:01;;;;;;;34.33;17.35;;;;;;;17.31;49.93;100843.63;5069278;28;20411;-79
2023/05/01 05:47:26;;;;;;;55.80;18.40;;;;;;;17.58;49.44;100858.06;5068751;28;20024;-79
2023/05/01 05:49:54;;;;;;;32.65;16.13;;;;;;;17.69;48.63;100860.47;5067704;28;20029;-79
2023/05/01 05:52:20;;;;;;;36.28;17.52;;;;;;;17.81;48.48;100861.88;5068524;28;20115;-80
2023/05/01 05:54:45;;;;;;;40.58;17.85;;;;;;;17.94;48.63;100870.44;5069686;28;20116;-78
2023/05/01 05:57:11;;;;;;;48.95;16.90;;;;;;;18.01;47.83;100860.56;5074487;28;20050;-79
2023/05/01 05:59:36;;;;;;;27.27;14.23;;;;;;;18.08;46.84;100845.28;5073162;28;20086;-79
2023/05/01 06:02:01;;;;;;;31.40;15.05;;;;;;;18.26;46.52;100865.03;5069186;28;20023;-77
2023/05/01 06:04:27;;;;;;;36.10;14.40;;;;;;;18.33;45.65;100844.28;5067353;28;20062;-78
2023/05/01 06:06:53;;;;;;;28.35;13.75;;;;;;;18.47;44.89;100859.94;5068530;28;20041;-79
2023/05/01 06:09:19;;;;;;;35.95;12.90;;;;;;;18.66;44.06;100863.38;5068809;28;20536;-79
2023/05/01 06:11:44;;;;;;;37.10;11.52;;;;;;;18.67;43.01;100862.34;5068867;28;20024;-79
2023/05/01 06:14:10;;;;;;;47.10;20.50;;;;;;;18.73;42.83;100858.94;5068007;28;20024;-80
2023/05/01 06:16:37;;;;;;;44.50;20.88;;;;;;;18.82;42.45;100855.19;5068551;28;20028;-79
2023/05/01 06:19:02;;;;;;;43.00;15.23;;;;;;;19.07;41.86;100877.81;5068619;28;20036;-79
2023/05/01 06:21:28;;;;;;;54.63;14.73;;;;;;;19.15;41.67;100873.19;5068450;28;20451;-80
2023/05/01 06:23:53;;;;;;;19.85;10.15;;;;;;;19.27;41.11;100877.25;5068427;28;20025;-79
2023/05/01 06:26:20;;;;;;;23.85;13.25;;;;;;;19.32;40.37;100877.59;5068726;28;20024;-79
2023/05/01 06:28:45;;;;;;;30.52;15.05;;;;;;;19.43;41.25;100882.69;5068586;28;20040;-77
2023/05/01 06:31:11;;;;;;;27.30;13.98;;;;;;;19.52;41.13;100887.09;5068886;28;20021;-79
2023/05/01 06:33:36;;;;;;;64.85;22.35;;;;;;;19.63;41.22;100893.19;5068565;28;20604;-78
2023/05/01 06:36:02;;;;;;;34.10;15.32;;;;;;;19.59;40.41;100887.22;5068534;28;20053;-78
2023/05/01 06:38:27;;;;;;;31.30;12.82;;;;;;;19.71;40.11;100895.88;5067524;28;20033;-78
2023/05/01 06:40:53;;;;;;;32.47;13.90;;;;;;;19.79;39.54;100893.09;5070544;28;20062;-78
2023/05/01 06:43:18;;;;;;;34.42;12.60;;;;;;;19.85;39.43;100884.19;5071239;28;20025;-79
2023/05/01 06:45:44;;;;;;;24.25;12.38;;;;;;;20.02;38.98;100913.13;5071679;28;20028;-79
2023/05/01 06:48:10;;;;;;;18.63;10.80;;;;;;;19.99;37.75;100899.84;5072509;28;20028;-78
2023/05/01 06:50:35;;;;;;;33.10;11.90;;;;;;;20.05;38.00;100910.03;5072644;28;20036;-79
2023/05/01 06:53:01;;;;;;;23.17;12.50;;;;;;;20.14;37.66;100911.69;5072972;28;20021;-78
2023/05/01 06:55:32;;;;;;;23.95;10.65;;;;;;;20.17;37.31;100905.03;5074637;28;20032;-80
2023/05/01 06:57:57;;;;;;;15.95;7.15;;;;;;;20.32;36.49;100915.03;5072750;28;20062;-80
2023/05/01 07:00:22;;;;;;;24.38;6.50;;;;;;;20.50;35.71;100926.50;5071475;28;20395;-80
2023/05/01 07:02:48;;;;;;;15.82;4.90;;;;;;;20.56;34.33;100917.59;5071425;28;20444;-78
2023/05/01 07:05:14;;;;;;;17.10;5.45;;;;;;;20.61;33.29;100928.81;5071343;28;20554;-80
2023/05/01 07:07:39;;;;;;;31.10;5.50;;;;;;;20.55;32.99;100906.81;5071692;28;20051;-78
2023/05/01 07:10:05;;;;;;;14.00;4.60;;;;;;;20.62;32.46;100922.31;5071588;28;20036;-80
2023/05/01 07:12:30;;;;;;;15.88;3.80;;;;;;;20.73;32.79;100925.66;5071532;28;20085;-80
2023/05/01 07:14:56;;;;;;;11.75;2.72;;;;;;;20.74;30.07;100932.81;5071194;28;20029;-82
2023/05/01 07:17:21;;;;;;;6.45;3.28;;;;;;;20.83;30.47;100938.03;5071409;28;20101;-77
2023/05/01 07:19:47;;;;;;;6.50;2.65;;;;;;;20.89;30.24;100939.19;5070992;28;20029;-78
2023/05/01 07:22:12;;;;;;;13.85;2.90;;;;;;;20.96;29.10;100938.28;5070690;28;20114;-78
2023/05/01 07:24:38;;;;;;;5.88;2.80;;;;;;;20.76;28.95;100939.81;5069766;28;20049;-78
2023/05/01 07:27:03;;;;;;;10.02;2.55;;;;;;;20.83;28.88;100948.13;5071327;28;20786;-81
2023/05/01 07:29:29;;;;;;;10.10;4.35;;;;;;;21.00;29.10;100944.22;5071475;28;20070;-79
2023/05/01 07:31:54;;;;;;;6.28;2.58;;;;;;;21.04;28.71;100945.53;5071018;28;20107;-80
2023/05/01 07:34:20;;;;;;;11.18;3.10;;;;;;;20.90;28.19;100951.84;5071931;28;20064;-83
2023/05/01 07:36:45;;;;;;;17.80;3.47;;;;;;;20.80;28.51;100959.41;5077234;28;20131;-80
2023/05/01 07:39:12;;;;;;;6.55;2.33;;;;;;;20.93;28.50;100959.66;5073178;28;20032;-84
2023/05/01 07:41:38;;;;;;;5.22;2.80;;;;;;;20.72;28.65;100962.22;5071356;28;20306;-78
2023/05/01 07:44:03;;;;;;;9.98;3.22;;;;;;;20.84;28.44;100960.75;5070862;28;20021;-77
2023/05/01 07:46:29;;;;;;;18.15;3.58;;;;;;;20.68;28.45;100977.28;5071636;28;20483;-84
2023/05/01 07:48:54;;;;;;;8.05;2.45;;;;;;;20.62;28.80;100963.31;5071318;28;20024;-80
2023/05/01 07:51:20;;;;;;;22.10;3.15;;;;;;;20.70;28.77;100975.25;5075876;28;20047;-83
2023/05/01 07:53:47;;;;;;;9.70;2.78;;;;;;;20.65;28.79;100973.03;5080358;28;20020;-83
2023/05/01 07:56:13;;;;;;;34.13;5.88;;;;;;;20.51;28.95;100971.94;5089812;28;20052;-79
2023/05/01 07:58:40;;;;;;;5.63;2.60;;;;;;;20.60;28.61;100987.25;5071695;28;20060;-82
2023/05/01 08:01:06;;;;;;;9.35;2.75;;;;;;;20.66;28.91;100984.81;5073517;28;20027;-81
2023/05/01 08:03:31;;;;;;;9.02;2.65;;;;;;;20.82;29.07;100968.31;5070566;28;20118;-79
2023/05/01 08:05:57;;;;;;;24.70;3.63;;;;;;;20.73;29.17;100989.41;5071158;28;20033;-85
2023/05/01 08:08:23;;;;;;;8.75;2.88;;;;;;;20.48;28.98;100966.84;5071258;28;20657;-81
2023/05/01 08:10:48;;;;;;;12.48;2.67;;;;;;;20.67;28.92;101002.94;5070707;28;20025;-80
2023/05/01 08:13:13;;;;;;;10.13;2.80;;;;;;;20.80;29.04;100992.22;5070242;28;20035;-82
2023/05/01 08:15:41;;;;;;;13.88;2.75;;;;;;;20.69;27.96;100985.31;5070689;28;20032;-81
2023/05/01 08:18:08;;;;;;;28.23;3.60;;;;;;;20.82;28.24;100996.50;5070237;28;20024;-81
2023/05/01 08:20:35;;;;;;;15.93;2.40;;;;;;;21.03;28.52;100993.94;5071128;28;20020;-82
2023/05/01 08:23:01;;;;;;;10.02;2.30;;;;;;;21.06;28.09;100981.78;5072130;28;20043;-83
2023/05/01 08:25:26;;;;;;;5.35;1.90;;;;;;;21.13;27.98;101001.91;5070782;28;20025;-81
2023/05/01 08:27:52;;;;;;;17.50;2.03;;;;;;;21.00;28.51;100990.72;5070610;28;20044;-80
2023/05/01 08:30:17;;;;;;;4.43;2.22;;;;;;;21.03;28.89;100993.94;5073298;28;20050;-78
2023/05/01 08:32:42;;;;;;;6.72;2.47;;;;;;;21.00;28.75;101002.53;5074370;28;20484;-76
2023/05/01 08:35:08;;;;;;;7.72;2.60;;;;;;;21.06;28.66;100998.19;5069294;28;20111;-76
2023/05/01 08:37:34;;;;;;;10.23;2.50;;;;;;;21.02;28.52;100996.84;5070684;28;20152;-78
2023/05/01 08:39:59;;;;;;;14.05;2.92;;;;;;;20.80;29.28;100997.69;5070484;28;20028;-80
2023/05/01 08:42:26;;;;;;;10.02;2.45;;;;;;;20.86;29.92;100986.03;5070128;28;20074;-84
2023/05/01 08:44:55;;;;;;;9.05;2.15;;;;;;;20.66;29.39;100968.44;5070757;28;20024;-80
2023/05/01 08:47:21;;;;;;;7.82;2.42;;;;;;;20.65;29.83;100994.91;5070336;28;20036;-78
2023/05/01 08:49:49;;;;;;;8.85;2.97;;;;;;;20.74;29.23;100995.69;5071027;28;20395;-80
2023/05/01 08:52:15;;;;;;;17.05;2.60;;;;;;;20.72;28.86;100987.69;5070088;28;20062;-80
2023/05/01 08:54:46;;;;;;;9.07;2.80;;;;;;;20.92;29.23;100996.25;5065714;28;20060;-80
2023/05/01 08:57:11;;;;;;;12.95;2.97;;;;;;;21.08;29.58;100996.13;5067358;28;20029;-79
2023/05/01 08:59:40;;;;;;;11.65;4.57;;;;;;;21.01;28.85;100992.41;5068616;28;20032;-81
2023/05/01 09:02:08;;;;;;;9.48;4.18;;;;;;;21.17;29.23;101004.09;5068154;28;20032;-77
2023/05/01 09:04:36;;;;;;;8.40;2.35;;;;;;;21.20;28.85;100981.00;5069375;28;20403;-85
2023/05/01 09:07:02;;;;;;;28.35;5.82;;;;;;;21.41;28.75;100994.81;5069220;28;20051;-80
2023/05/01 09:09:29;;;;;;;22.88;3.22;;;;;;;21.55;28.65;100999.47;5068920;28;20021;-79
2023/05/01 09:12:19;;;;;;;15.55;4.18;;;;;;;21.60;28.56;101007.97;5068581;28;20120;-83
2023/05/01 09:14:45;;;;;;;33.03;3.20;;;;;;;21.42;28.26;101015.69;5066630;28;20498;-78
2023/05/01 09:17:11;;;;;;;10.75;2.33;;;;;;;21.26;28.11;101002.16;5066243;28;20043;-78
2023/05/01 09:19:37;;;;;;;11.05;5.30;;;;;;;21.31;28.06;101016.13;5067657;28;20115;-79
2023/05/01 09:22:03;;;;;;;8.73;2.78;;;;;;;21.29;28.45;101015.44;5069346;28;20136;-84
2023/05/01 09:24:28;;;;;;;9.23;3.20;;;;;;;21.27;28.32;101016.69;5069004;28;20467;-80
2023/05/01 09:26:56;;;;;;;10.25;2.10;;;;;;;21.20;28.30;101005.63;5069025;28;20090;-80
2023/05/01 09:29:41;;;;;;;9.88;2.60;;;;;;;21.00;28.28;101020.81;5071217;28;20035;-82
2023/05/01 09:32:19;;;;;;;13.25;2.40;;;;;;;21.01;29.54;101017.03;5069113;28;20029;-82
2023/05/01 09:34:45;;;;;;;8.68;2.25;;;;;;;21.07;29.39;101006.19;5068741;28;20032;-79
2023/05/01 09:37:32;;;;;;;8.10;2.35;;;;;;;21.34;29.21;101023.13;5068150;28;20049;-83
2023/05/01 09:40:09;;;;;;;16.58;2.85;;;;;;;21.45;29.05;101007.09;5068748;28;20032;-81
2023/05/01 09:42:51;;;;;;;5.90;2.53;;;;;;;21.58;29.48;101026.47;5068494;28;20064;-77
2023/05/01 09:45:18;;;;;;;;;;;;;;;21.64;29.61;101025.72;5064317;28;20041;-81
2023/05/01 09:47:46;;;;;;;11.60;2.50;;;;;;;21.61;30.06;101022.50;5050734;28;19940;-78
2023/05/01 09:50:33;;;;;;;24.08;3.33;;;;;;;21.85;29.78;101021.41;5070718;28;20032;-81
2023/05/01 09:53:03;;;;;;;41.33;5.68;;;;;;;21.82;29.41;101013.56;5066566;28;20107;-83
2023/05/01 09:55:29;;;;;;;16.38;3.45;;;;;;;21.90;28.82;101008.00;5066485;28;20502;-80
2023/05/01 09:57:57;;;;;;;8.45;2.85;;;;;;;21.65;28.76;100980.88;5068708;28;20023;-84
2023/05/01 10:00:24;;;;;;;25.83;3.58;;;;;;;21.93;28.91;101018.59;5068736;28;20119;-83
2023/05/01 10:02:50;;;;;;;12.73;3.00;;;;;;;22.08;29.17;101014.81;5068388;28;20035;-82
2023/05/01 10:05:16;;;;;;;17.45;2.83;;;;;;;22.09;29.15;101018.41;5068334;28;20041;-83
2023/05/01 10:07:56;;;;;;;6.53;2.45;;;;;;;22.14;28.88;101026.88;5068717;28;20029;-81
2023/05/01 10:10:22;;;;;;;16.92;2.70;;;;;;;22.20;29.06;101007.81;5068717;28;20032;-82
2023/05/01 10:12:47;;;;;;;8.68;2.63;;;;;;;22.03;28.97;101021.91;5069139;28;20040;-80
2023/05/01 10:15:13;;;;;;;9.30;2.90;;;;;;;22.00;29.33;101008.59;5073506;28;20391;-79
2023/05/01 10:17:41;;;;;;;9.82;2.47;;;;;;;22.02;28.83;101007.34;5070314;28;20029;-77
2023/05/01 10:20:08;;;;;;;17.13;3.88;;;;;;;22.17;29.00;101021.03;5051797;28;20037;-78
2023/05/01 10:22:34;;;;;;;9.30;4.40;;;;;;;22.03;29.18;101020.00;5053070;28;20021;-82
2023/05/01 10:25:00;;;;;;;10.93;3.63;;;;;;;22.16;29.30;101035.78;5057407;28;20028;-81
2023/05/01 10:27:26;;;;;;;21.42;2.63;;;;;;;22.05;29.70;101023.41;5052541;28;20472;-79
2023/05/01 10:29:52;;;;;;;23.77;3.40;;;;;;;22.11;29.44;101022.66;5068390;28;20052;-79
2023/05/01 10:32:19;;;;;;;13.60;2.97;;;;;;;22.16;29.57;101011.97;5072876;28;20411;-79
2023/05/01 10:34:51;;;;;;;9.57;2.63;;;;;;;22.67;29.27;101010.09;5069801;28;20453;-84
2023/05/01 10:37:23;;;;;;;8.52;2.85;;;;;;;22.39;29.10;101002.75;5073400;28;20051;-81
2023/05/01 10:39:49;;;;;;;8.90;2.33;;;;;;;22.32;29.44;101023.78;5072080;28;20032;-80
2023/05/01 10:42:16;;;;;;;19.80;2.67;;;;;;;22.10;29.73;101015.50;5071893;28;20032;-80
2023/05/01 10:44:42;;;;;;;14.05;2.70;;;;;;;21.95;29.81;101027.47;5071483;28;20107;-79
2023/05/01 10:47:23;;;;;;;8.75;2.85;;;;;;;21.98;29.87;101027.09;5072436;28;20119;-79
2023/05/01 10:50:06;;;;;;;7.55;2.20;;;;;;;22.11;29.05;101008.94;5072542;28;20047;-78
2023/05/01 10:53:13;;;;;;;18.40;3.15;;;;;;;22.38;28.22;101018.38;5071480;28;20093;-82
2023/05/01 10:55:43;;;;;;;10.32;2.28;;;;;;;22.67;27.15;101014.72;5071599;28;20403;-77
2023/05/01 10:58:13;;;;;;;11.85;2.63;;;;;;;22.53;27.33;101007.38;5071807;28;20040;-80
2023/05/01 11:00:39;;;;;;;23.67;2.90;;;;;;;22.65;27.57;101014.94;5072340;28;20028;-80
2023/05/01 11:03:23;;;;;;;8.05;2.00;;;;;;;22.86;27.24;101022.34;5072448;28;20120;-78
2023/05/01 11:06:03;;;;;;;10.50;1.90;;;;;;;22.98;27.00;101028.16;5072158;28;20085;-78
2023/05/01 11:08:30;;;;;;;12.68;2.92;;;;;;;23.06;26.80;101022.53;5072544;28;20041;-79
2023/05/01 11:10:55;;;;;;;6.07;2.50;;;;;;;23.16;26.94;101028.53;5076940;28;20032;-77
2023/05/01 11:13:58;;;;;;;9.05;2.13;;;;;;;23.16;26.69;101017.56;5074965;28;20028;-78
2023/05/01 11:16:40;;;;;;;14.05;2.47;;;;;;;23.05;27.14;101029.94;5074383;28;20025;-75
2023/05/01 11:19:10;;;;;;;7.47;2.00;;;;;;;22.72;27.32;101032.28;5076596;28;20507;-77